Kayenta, AZ

4:29 PM MDT on September 19, 2014 (GMT -0600)
Page Municipal | Change Station
CLOSE
Current Station
Airport
Location: Page,
Elevation: 4308 ft
Nearby Weather Stations
Active Advisory: Areal Flood Advisory

Elev 4308 ft 36.92 °N, 111.45 °W | Updated 36 minutes ago

Mostly Cloudy
Mostly Cloudy
92 °F
Feels Like 92 °F
N
6
Wind Variable Wind from North

Today
High -- | Low -- °F
--% Chance of Precip.
Yesterday
High -- | Low -- °F
Precip. -- in
7:06 AM 7:22 PM
Waning Crescent, 16% visible
Pressure 29.73 in
Visibility 10.0 miles
Clouds Clear
Dew Point 46 °F
Humidity 21%
Rainfall 0.00 in
Snow Depth 0 in , 0 in , 0 in
UV 5 out of 12
Pollen 6.30 out of 12
Air Quality Not available.
Flu Activity Not available.
METAR KPGA 192153Z AUTO 35005KT 10SM CLR 33/08 A2995 RMK AO2 SLP066 T03330078

More Conditions Fewer Conditions

Pressure 29.73 in
Visibility 10.0 miles
Clouds Clear
Dew Point 46 °F
Humidity 21%
Rainfall 0.00 in
Snow Depth 0 in , 0 in , 0 in
UV 5 out of 12
Pollen 6.30 out of 12
Air Quality Not available.
Flu Activity Not available.
METAR KPGA 192153Z AUTO 35005KT 10SM CLR 33/08 A2995 RMK AO2 SLP066 T03330078

More Conditions Fewer Conditions

10-Day Weather Forecast

Almanac

Astronomy

Sep. 19, 2014 Rise Set
Actual Time 7:06 AM MDT 7:22 PM MDT
Civil Twilight 6:40 AM MDT 7:48 PM MDT
Nautical Twilight 6:10 AM MDT 8:18 PM MDT
Astronomical Twilight 5:39 AM MDT 8:49 PM MDT
Moon 3:00 AM MDT 4:48 PM MDT
Length of Visible Light 13h 07m
Length of Day
12h 15m
Tomorrow will be 2m 19s shorter.
Waning Crescent, 16% of the Moon is Illuminated
Today
Waning Crescent
Sep 24
New
Oct 1
First Quarter
Oct 8
Full
Oct 15
Last Quarter

Today's Extremes

State Highs State Lows

Community

WunderPhotos

Upload Photos

1,754,721 photos uploaded!

WunderBlogs® & News

Nearby

Snow Depth

Station Depth Elevation
Fry 0 in 7200 ft
Beaver Head 0 in 7990 ft
Workman Creek 1 in 6900 ft
Snowslide Canyon 0 in 9730 ft

Earthquake Activity

City Distance Mag. Time & Date
No recent earthquake activity has been reported nearby.
Minimum magnitude displayed is 2.5.

Coastal Water Temperatures

Place Temperature
No Stations Reporting

Nearby Weather Stations